createdAt,value
2022-08-08T00:01:08.447Z,17.5
2022-08-08T00:06:11.518Z,17.5
2022-08-08T00:11:17.739Z,17.4
2022-08-08T00:16:24.329Z,17.3
2022-08-08T00:21:30.133Z,17.3
2022-08-08T00:26:36.351Z,17.2
2022-08-08T00:32:29.187Z,17.2
2022-08-08T00:36:47.773Z,17.1
2022-08-08T00:42:07.758Z,17.1
2022-08-08T00:47:00.202Z,17.1
2022-08-08T00:52:06.407Z,17.0
2022-08-08T00:57:12.862Z,17.0
2022-08-08T01:03:18.195Z,16.9
2022-08-08T01:07:34.837Z,16.9
2022-08-08T01:12:31.821Z,16.9
2022-08-08T01:17:53.169Z,16.8
2022-08-08T01:22:43.650Z,16.8
2022-08-08T01:27:50.386Z,16.8
2022-08-08T01:32:56.063Z,16.7
2022-08-08T01:38:02.279Z,16.7
2022-08-08T01:43:08.484Z,16.6
2022-08-08T01:48:30.236Z,16.5
2022-08-08T01:54:19.308Z,16.5
2022-08-08T01:58:31.965Z,16.4
2022-08-08T02:03:56.896Z,16.4
2022-08-08T02:08:39.536Z,16.3
2022-08-08T02:13:53.623Z,16.3
2022-08-08T02:18:58.828Z,16.2
2022-08-08T02:23:58.160Z,16.2
2022-08-08T02:29:04.367Z,16.2
2022-08-08T02:34:15.128Z,16.2
2022-08-08T02:39:40.481Z,16.1
2022-08-08T02:44:43.121Z,16.1
2022-08-08T02:49:50.687Z,16.0
2022-08-08T02:54:35.428Z,16.0
2022-08-08T03:00:01.685Z,15.9
2022-08-08T03:05:03.899Z,15.9
2022-08-08T03:09:54.083Z,15.9
2022-08-08T03:16:00.542Z,15.9
2022-08-08T03:20:08.290Z,15.8
2022-08-08T03:25:18.193Z,15.8
2022-08-08T03:30:19.257Z,15.7
2022-08-08T03:35:25.166Z,15.7
2022-08-08T03:40:32.038Z,15.6
2022-08-08T03:46:05.979Z,15.6
2022-08-08T03:50:43.797Z,15.5
2022-08-08T03:55:57.727Z,15.5
2022-08-08T04:01:01.497Z,15.5
2022-08-08T04:06:03.029Z,15.5
2022-08-08T04:11:11.006Z,15.4
2022-08-08T04:16:14.871Z,15.4
2022-08-08T04:21:23.337Z,15.4
2022-08-08T04:26:27.294Z,15.4
2022-08-08T04:31:58.591Z,15.4
2022-08-08T04:36:39.716Z,15.4
2022-08-08T04:41:45.936Z,15.4
2022-08-08T04:46:52.362Z,15.4
2022-08-08T04:51:58.367Z,15.5
2022-08-08T04:57:04.586Z,15.5
2022-08-08T05:02:13.508Z,15.5
2022-08-08T05:07:17.021Z,15.5
2022-08-08T05:12:29.602Z,15.5
2022-08-08T05:17:29.451Z,15.5
2022-08-08T05:22:35.658Z,15.6
2022-08-08T05:27:44.404Z,15.7
2022-08-08T05:32:48.104Z,15.7
2022-08-08T05:37:54.732Z,15.8
2022-08-08T05:43:01.594Z,15.9
2022-08-08T05:48:08.598Z,16.0
2022-08-08T05:53:22.917Z,16.1
2022-08-08T05:58:20.173Z,16.3
2022-08-08T06:03:25.452Z,16.4
2022-08-08T06:08:34.639Z,16.5
2022-08-08T06:13:47.461Z,16.7
2022-08-08T06:18:43.128Z,16.8
2022-08-08T06:24:02.386Z,17.0
2022-08-08T06:28:55.417Z,17.2
2022-08-08T06:34:25.857Z,17.5
2022-08-08T06:39:07.082Z,17.7
2022-08-08T06:44:22.887Z,18.0
2022-08-08T06:49:19.279Z,18.3
2022-08-08T06:54:25.606Z,18.7
2022-08-08T07:00:01.792Z,19.0
2022-08-08T07:04:45.426Z,19.3
2022-08-08T07:09:56.673Z,19.7
2022-08-08T07:14:51.616Z,20.1
2022-08-08T07:20:00.127Z,20.5
2022-08-08T07:25:02.754Z,20.9
2022-08-08T07:30:13.983Z,21.2
2022-08-08T07:35:15.145Z,21.4
2022-08-08T07:40:28.905Z,21.7
2022-08-08T07:45:34.401Z,21.9
2022-08-08T07:50:33.772Z,22.2
2022-08-08T07:55:39.977Z,22.4
2022-08-08T08:00:46.253Z,22.6
2022-08-08T08:05:53.391Z,22.8
2022-08-08T08:10:58.606Z,23.0
2022-08-08T08:16:04.823Z,23.1
2022-08-08T08:21:18.796Z,23.2
2022-08-08T08:26:18.001Z,23.4
2022-08-08T08:31:23.441Z,23.6
2022-08-08T08:36:29.648Z,23.7
2022-08-08T08:41:35.860Z,23.9
2022-08-08T08:46:47.467Z,24.1
2022-08-08T08:51:51.642Z,24.2
2022-08-08T08:56:54.488Z,24.4
2022-08-08T09:02:00.770Z,24.5
2022-08-08T09:07:12.247Z,24.7
2022-08-08T09:12:13.115Z,24.8
2022-08-08T09:17:19.613Z,24.9
2022-08-08T09:22:26.874Z,25.0
2022-08-08T09:27:56.671Z,25.1
2022-08-08T09:32:38.033Z,25.2
2022-08-08T09:38:01.179Z,25.4
2022-08-08T09:42:52.179Z,25.5
2022-08-08T09:48:04.421Z,25.6
2022-08-08T09:53:23.826Z,25.7
2022-08-08T09:58:09.015Z,25.6
2022-08-08T10:03:15.207Z,25.5
2022-08-08T10:08:21.411Z,25.6
2022-08-08T10:13:32.372Z,25.8
2022-08-08T10:18:33.828Z,25.9
2022-08-08T10:23:41.622Z,26.0
2022-08-08T10:28:53.751Z,26.2
2022-08-08T10:34:19.616Z,26.2
2022-08-08T10:38:58.665Z,26.0
2022-08-08T10:44:04.878Z,26.2
2022-08-08T10:49:11.996Z,26.4
2022-08-08T10:54:17.291Z,26.3
2022-08-08T10:59:23.499Z,26.2
2022-08-08T11:04:39.303Z,26.3
2022-08-08T11:09:35.922Z,26.4
2022-08-08T11:14:42.147Z,26.2
2022-08-08T11:19:52.590Z,26.3
2022-08-08T11:24:54.544Z,26.3
2022-08-08T11:30:19.420Z,26.5
2022-08-08T11:35:27.286Z,26.4
2022-08-08T11:40:13.267Z,26.3
2022-08-08T11:45:19.398Z,26.4
2022-08-08T11:50:25.604Z,26.6
2022-08-08T11:55:31.812Z,26.7
2022-08-08T12:00:38.028Z,26.9
2022-08-08T12:05:43.257Z,27.1
2022-08-08T12:10:49.469Z,27.2
2022-08-08T12:15:55.681Z,27.5
2022-08-08T12:21:01.896Z,27.4
2022-08-08T12:26:08.112Z,27.3
2022-08-08T12:31:14.392Z,27.4
2022-08-08T12:36:20.544Z,27.5
2022-08-08T12:41:35.507Z,27.6
2022-08-08T12:46:32.972Z,27.7
2022-08-08T12:51:39.954Z,27.8
2022-08-08T12:56:45.412Z,27.8
2022-08-08T13:06:58.838Z,27.4
2022-08-08T13:12:27.131Z,27.4
2022-08-08T13:18:08.706Z,27.6
2022-08-08T13:22:16.490Z,27.7
2022-08-08T13:27:22.701Z,27.9
2022-08-08T13:32:29.313Z,28.0
2022-08-08T13:38:03.150Z,28.1
2022-08-08T13:42:41.356Z,28.3
2022-08-08T13:47:55.577Z,28.4
2022-08-08T13:52:54.864Z,28.6
2022-08-08T13:58:07.936Z,28.6
2022-08-08T14:03:26.458Z,28.7
2022-08-08T14:08:16.634Z,28.6
2022-08-08T14:13:21.093Z,0.0
2022-08-08T14:18:36.914Z,0.0
2022-08-08T14:24:06.679Z,28.8
2022-08-08T14:28:39.864Z,28.8
2022-08-08T14:33:43.969Z,28.9
2022-08-08T14:38:52.419Z,29.0
2022-08-08T14:44:10.725Z,29.2
2022-08-08T14:49:02.667Z,29.3
2022-08-08T14:54:08.848Z,29.2
2022-08-08T14:59:22.409Z,29.0
2022-08-08T15:04:24.160Z,29.0
2022-08-08T15:09:27.521Z,29.0
2022-08-08T15:14:33.742Z,29.2
2022-08-08T15:19:39.958Z,29.3
2022-08-08T15:24:50.009Z,29.5
2022-08-08T15:29:52.388Z,29.5
2022-08-08T15:34:58.611Z,29.7
2022-08-08T15:40:04.825Z,29.8
2022-08-08T15:45:11.043Z,29.9
2022-08-08T15:50:20.804Z,30.0
2022-08-08T15:55:23.471Z,30.1
2022-08-08T16:00:29.716Z,30.0
2022-08-08T16:05:53.372Z,30.0
2022-08-08T16:13:02.825Z,30.0
2022-08-08T16:15:58.772Z,30.0
2022-08-08T16:21:00.352Z,30.0
2022-08-08T16:26:04.214Z,30.0
2022-08-08T16:31:08.218Z,29.9
2022-08-08T16:36:15.690Z,29.7
2022-08-08T16:41:22.538Z,29.6
2022-08-08T16:46:38.872Z,29.6
2022-08-08T16:55:03.982Z,29.7
2022-08-08T16:56:38.083Z,29.6
2022-08-08T17:01:44.305Z,29.6
2022-08-08T17:06:50.517Z,29.7
2022-08-08T17:12:00.676Z,29.6
2022-08-08T17:17:02.954Z,29.5
2022-08-08T17:22:09.171Z,29.4
2022-08-08T17:27:15.387Z,29.4
2022-08-08T17:32:21.606Z,29.3
2022-08-08T17:37:27.481Z,29.2
2022-08-08T17:42:33.053Z,29.1
2022-08-08T17:47:41.525Z,28.9
2022-08-08T17:52:47.590Z,28.7
2022-08-08T17:57:51.719Z,28.5
2022-08-08T18:03:07.953Z,28.4
2022-08-08T18:08:24.536Z,28.1
2022-08-08T18:13:10.370Z,27.9
2022-08-08T18:18:28.455Z,27.7
2022-08-08T18:23:22.807Z,27.4
2022-08-08T18:28:29.013Z,27.1
2022-08-08T18:34:10.322Z,26.8
2022-08-08T18:38:41.439Z,26.4
2022-08-08T18:43:47.651Z,26.1
2022-08-08T18:48:53.869Z,25.9
2022-08-08T18:54:03.354Z,25.5
2022-08-08T18:59:06.276Z,25.2
2022-08-08T19:04:12.898Z,25.0
2022-08-08T19:09:18.692Z,24.7
2022-08-08T19:14:24.908Z,24.5
2022-08-08T19:19:31.118Z,24.2
2022-08-08T19:24:49.209Z,24.0
2022-08-08T19:29:45.950Z,23.8
2022-08-08T19:34:51.554Z,23.6
2022-08-08T19:39:55.981Z,23.3
2022-08-08T19:45:05.470Z,23.2
2022-08-08T19:50:08.366Z,23.0
2022-08-08T19:55:14.695Z,22.8
2022-08-08T20:00:28.956Z,22.7
2022-08-08T20:06:13.432Z,22.6
2022-08-08T20:10:33.199Z,22.5
2022-08-08T20:15:59.837Z,22.4
2022-08-08T20:20:45.624Z,22.2
2022-08-08T20:25:51.823Z,22.1
2022-08-08T20:30:59.829Z,22.0
2022-08-08T20:36:07.746Z,21.9
2022-08-08T20:41:17.079Z,21.8
2022-08-08T20:46:16.660Z,21.7
2022-08-08T20:51:22.871Z,21.6
2022-08-08T20:56:34.957Z,21.5
2022-08-08T21:02:05.542Z,21.5
2022-08-08T21:06:52.789Z,21.4
2022-08-08T21:11:50.553Z,21.3
2022-08-08T21:22:00.115Z,21.1
2022-08-08T21:27:06.326Z,21.0
2022-08-08T21:32:14.214Z,20.9
2022-08-08T21:37:19.116Z,20.8
2022-08-08T21:48:06.529Z,20.5
2022-08-08T21:58:05.202Z,20.3
2022-08-08T22:02:48.813Z,20.2
2022-08-08T22:08:01.148Z,20.2
2022-08-08T22:13:18.791Z,20.1
2022-08-08T22:18:18.712Z,20.0
2022-08-08T22:23:29.725Z,19.9
2022-08-08T22:29:14.681Z,19.9
2022-08-08T22:34:12.528Z,19.8
2022-08-08T22:39:00.930Z,19.7
2022-08-08T22:44:13.257Z,19.7
2022-08-08T22:49:25.580Z,19.7
2022-08-08T22:54:53.749Z,19.7
2022-08-08T22:59:58.699Z,19.6
2022-08-08T23:04:49.349Z,19.6
2022-08-08T23:09:58.746Z,19.5
2022-08-08T23:15:11.076Z,19.5
2022-08-08T23:20:07.976Z,19.4
2022-08-08T23:25:14.187Z,19.4
2022-08-08T23:30:20.391Z,19.3
2022-08-08T23:35:26.594Z,19.3
2022-08-08T23:40:31.867Z,19.3
2022-08-08T23:49:05.196Z,19.3
2022-08-08T23:50:45.943Z,19.2
2022-08-08T23:55:50.446Z,19.2
